Bookmark and Share
Track history (hours):
 

Halima K

Last reported at 2014-Apr-16 13:24 UTC. Time now 2014-Apr-16 16:13 UTC.
Position N 46°36' E 031°47'.

Length 130 m; draft 8.3 m.

Type: Cargo ship. MMSI: 352444000.

NotesDate/timePositionNaut miles runAvg speedWind from/ knotsBaromVisibWave heightAir tempDewpointWater temp
2014-Apr-16 13:24N 46°36' E 031°47'7 8.6
2014-Apr-16 12:33N 46°39' E 031°56'9 8.8
2014-Apr-16 11:33N 46°48' E 031°53'4 3.5
2014-Apr-16 10:33N 46°50' E 031°57'0 0.0
2014-Apr-16 09:28N 46°50' E 031°57'0 0.0
2014-Apr-16 08:33N 46°50' E 031°57'0 0.0
2014-Apr-16 07:32N 46°50' E 031°57'0 0.0
2014-Apr-16 06:31N 46°50' E 031°57'0 0.0
2014-Apr-16 05:34N 46°50' E 031°57'0 0.0
2014-Apr-16 04:31N 46°50' E 031°57'0 0.0
2014-Apr-16 03:31N 46°50' E 031°57'0 0.0
2014-Apr-16 02:34N 46°50' E 031°57'0 0.0
2014-Apr-16 01:28N 46°50' E 031°57'0 0.0
2014-Apr-16 00:28N 46°50' E 031°57'0 0.0
2014-Apr-15 23:34N 46°50' E 031°57'0 0.0
2014-Apr-15 22:31N 46°50' E 031°57'0 0.0
2014-Apr-15 21:31N 46°50' E 031°57'0 0.0
2014-Apr-15 20:32N 46°50' E 031°57'0 0.0
2014-Apr-15 19:32N 46°50' E 031°57'0 0.0
2014-Apr-15 18:32N 46°50' E 031°57'0 0.0
2014-Apr-15 17:32N 46°50' E 031°57'0 0.0
2014-Apr-15 16:29N 46°50' E 031°57'0 0.0
2014-Apr-15 15:31N 46°50' E 031°57'0 0.0
2014-Apr-15 14:33N 46°50' E 031°57'0 0.0
2014-Apr-15 12:33N 46°50' E 031°57'0 0.0
2014-Apr-15 11:33N 46°50' E 031°57'0 0.0
2014-Apr-15 10:33N 46°50' E 031°57'0 0.0
2014-Apr-15 09:33N 46°50' E 031°57'0 0.0
2014-Apr-15 08:33N 46°50' E 031°57'0 0.0
2014-Apr-15 07:33N 46°50' E 031°57'0 0.0
2014-Apr-15 06:33N 46°50' E 031°57'0 0.0
2014-Apr-15 05:33N 46°50' E 031°57'0 0.0
2014-Apr-15 03:32N 46°50' E 031°57'0 0.0
2014-Apr-15 02:32N 46°50' E 031°57'0 0.0
2014-Apr-15 01:32N 46°50' E 031°57'0 0.0
2014-Apr-15 00:32N 46°50' E 031°57'0 0.0
2014-Apr-14 23:32N 46°50' E 031°57'0 0.0
2014-Apr-14 22:31N 46°50' E 031°57'0 0.0
2014-Apr-14 21:31N 46°50' E 031°57'0 0.0
2014-Apr-14 20:33N 46°50' E 031°57'0 0.0
2014-Apr-14 19:33N 46°50' E 031°57'0 0.0
2014-Apr-14 18:33N 46°50' E 031°57'0 0.0
2014-Apr-14 17:31N 46°50' E 031°57'0 0.0
2014-Apr-14 15:31N 46°50' E 031°57'0 0.0
2014-Apr-14 14:31N 46°50' E 031°57'0 0.0
2014-Apr-14 13:31N 46°50' E 031°57'0 0.0
2014-Apr-14 11:31N 46°50' E 031°57'0 0.0
2014-Apr-14 10:31N 46°50' E 031°57'0 0.0
2014-Apr-14 09:31N 46°50' E 031°57'0 0.1
2014-Apr-14 08:32N 46°50' E 031°57'0 0.0
2014-Apr-14 07:33N 46°50' E 031°57'6 5.7
2014-Apr-14 06:33N 46°45' E 031°54'8 8.3
2014-Apr-14 05:33N 46°37' E 031°52'  
2014-Apr-09 21:29N 46°21' E 031°08'0 0.0
2014-Apr-09 20:32N 46°21' E 031°08'0 0.0
2014-Apr-09 19:29N 46°21' E 031°08'0 0.0
2014-Apr-09 18:20N 46°21' E 031°08'0 0.0
2014-Apr-09 17:08N 46°21' E 031°08'0 0.0
2014-Apr-08 23:21N 46°21' E 031°08'0 0.0
2014-Apr-08 22:33N 46°21' E 031°08'0 0.0
2014-Apr-08 21:29N 46°21' E 031°08'0 0.0
2014-Apr-07 08:06N 46°21' E 031°08'0 0.0
2014-Apr-07 07:26N 46°21' E 031°08'  

Dump ship's entire track history

sailing weather and tide predictions

Halima K — HPDM — position and weather